Flesherton, Canada
Current Conditions -  °F | °C
As of 4:00 AM on Saturday 29 Nov 2014 (Local Time) from CYBN Reporting Station
Overcast Overcast  
Wind Chill: 14°   Ceiling: 1800
Heat Index: 23°   Visibility: 9mi
Dew Point: 18°   Wind: 8mph
Humidity: 80%   Direction: 140°SE
Pressure: 30.1"   Gusts: NA
Location:  44.25°N, 80.55°W
Report Text: CYBN 290900Z AUTO 14007KT 9SM OVC018 M05/M08 A3010 RMK SLP205
Loading
Personal Weather Stations






























Interactive Weather Map New forecast layout! Learn more

10-Day Weather Forecast

Advertisements
Track Severe Weather on mobile